createdAt,value
2018-01-21T00:00:45.675Z,87.02
2018-01-21T00:01:45.579Z,87.30
2018-01-21T00:02:45.568Z,87.21
2018-01-21T00:03:45.700Z,87.40
2018-01-21T00:04:45.570Z,87.87
2018-01-21T00:05:45.561Z,87.87
2018-01-21T00:06:45.578Z,87.68
2018-01-21T00:07:45.578Z,87.97
2018-01-21T00:08:45.612Z,88.35
2018-01-21T00:09:45.595Z,88.16
2018-01-21T00:10:45.463Z,88.92
2018-01-21T00:11:45.522Z,88.73
2018-01-21T00:12:45.852Z,89.01
2018-01-21T00:13:45.471Z,88.25
2018-01-21T00:14:45.520Z,88.06
2018-01-21T00:15:45.468Z,87.40
2018-01-21T00:16:45.431Z,87.12
2018-01-21T00:17:45.461Z,86.93
2018-01-21T00:18:45.442Z,87.12
2018-01-21T00:19:45.409Z,87.21
2018-01-21T00:20:46.614Z,87.12
2018-01-21T00:21:45.389Z,86.93
2018-01-21T00:24:07.866Z,87.21
2018-01-21T00:26:29.645Z,87.68
2018-01-21T00:28:52.821Z,88.25
2018-01-21T00:29:51.991Z,87.87
2018-01-21T00:30:51.443Z,87.87
2018-01-21T00:31:51.152Z,87.87
2018-01-21T00:32:51.068Z,87.87
2018-01-21T00:33:51.133Z,87.49
2018-01-21T00:34:51.196Z,87.49
2018-01-21T00:35:52.340Z,87.87
2018-01-21T00:36:51.152Z,87.87
2018-01-21T00:37:51.134Z,87.77
2018-01-21T00:38:51.124Z,88.25
2018-01-21T00:39:51.033Z,87.68
2018-01-21T00:40:51.095Z,87.87
2018-01-21T00:41:51.007Z,88.35
2018-01-21T00:42:51.086Z,88.25
2018-01-21T00:43:51.088Z,88.16
2018-01-21T00:44:51.127Z,87.49
2018-01-21T00:45:51.122Z,87.30
2018-01-21T00:46:51.052Z,87.40
2018-01-21T00:47:50.999Z,87.12
2018-01-21T00:48:51.014Z,86.83
2018-01-21T00:49:51.026Z,86.45
2018-01-21T00:50:50.929Z,86.59
2018-01-21T00:51:50.926Z,86.55
2018-01-21T00:52:51.041Z,86.68
2018-01-21T00:53:50.968Z,86.16
2018-01-21T00:54:50.946Z,86.35
2018-01-21T00:55:50.980Z,86.16
2018-01-21T00:56:50.913Z,86.74
2018-01-21T00:57:50.923Z,86.55
2018-01-21T00:58:50.938Z,86.64
2018-01-21T00:59:50.916Z,86.30
2018-01-21T01:00:50.939Z,86.30
2018-01-21T01:01:50.871Z,86.11
2018-01-21T01:02:50.850Z,86.07
2018-01-21T01:03:50.827Z,86.93
2018-01-21T01:04:50.859Z,86.83
2018-01-21T01:05:50.909Z,87.49
2018-01-21T01:06:50.823Z,87.21
2018-01-21T01:07:50.881Z,87.30
2018-01-21T01:08:50.821Z,86.93
2018-01-21T01:09:50.866Z,86.59
2018-01-21T01:10:50.777Z,86.40
2018-01-21T01:11:50.844Z,86.16
2018-01-21T01:12:50.756Z,87.02
2018-01-21T01:13:50.837Z,87.02
2018-01-21T01:14:50.791Z,86.59
2018-01-21T01:15:50.777Z,86.59
2018-01-21T01:16:50.699Z,86.64
2018-01-21T01:17:50.750Z,86.21
2018-01-21T01:18:50.743Z,86.16
2018-01-21T01:19:50.753Z,86.83
2018-01-21T01:20:50.732Z,86.83
2018-01-21T01:21:50.722Z,85.97
2018-01-21T01:22:50.651Z,86.35
2018-01-21T01:23:50.641Z,86.35
2018-01-21T01:24:50.700Z,86.55
2018-01-21T01:25:50.785Z,86.16
2018-01-21T01:26:50.698Z,86.35
2018-01-21T01:27:50.689Z,86.07
2018-01-21T01:28:50.688Z,86.07
2018-01-21T01:29:50.626Z,86.26
2018-01-21T01:30:50.656Z,86.35
2018-01-21T01:31:50.596Z,86.35
2018-01-21T01:32:50.640Z,86.07
2018-01-21T01:33:50.572Z,86.16
2018-01-21T01:34:59.923Z,86.07
2018-01-21T01:36:44.383Z,86.26
2018-01-21T01:37:44.214Z,86.16
2018-01-21T01:38:44.400Z,86.16
2018-01-21T01:39:43.929Z,86.64
2018-01-21T01:40:44.067Z,86.35
2018-01-21T01:41:43.977Z,85.60
2018-01-21T01:42:43.946Z,85.60
2018-01-21T01:43:43.982Z,86.35
2018-01-21T01:44:43.939Z,86.16
2018-01-21T01:45:43.971Z,85.74
2018-01-21T01:46:43.943Z,86.26
2018-01-21T01:47:43.939Z,86.07
2018-01-21T01:48:43.895Z,86.16
2018-01-21T01:49:43.852Z,86.35
2018-01-21T01:50:43.914Z,86.35
2018-01-21T01:51:43.878Z,86.45
2018-01-21T01:52:43.879Z,85.41
2018-01-21T01:53:43.938Z,85.78
2018-01-21T01:54:43.875Z,85.60
2018-01-21T01:55:43.889Z,85.60
2018-01-21T01:56:43.828Z,86.26
2018-01-21T01:57:43.822Z,85.60
2018-01-21T01:58:43.790Z,85.41
2018-01-21T01:59:43.796Z,85.64
2018-01-21T02:00:43.839Z,85.50
2018-01-21T02:01:43.829Z,85.64
2018-01-21T02:02:43.790Z,85.45
2018-01-21T02:03:43.834Z,85.78
2018-01-21T02:04:43.763Z,86.21
2018-01-21T02:05:43.757Z,86.40
2018-01-21T02:06:43.762Z,86.16
2018-01-21T02:07:43.760Z,86.26
2018-01-21T02:08:43.714Z,86.45
2018-01-21T02:09:43.733Z,86.55
2018-01-21T02:10:43.751Z,86.16
2018-01-21T02:11:43.738Z,86.55
2018-01-21T02:12:43.698Z,86.55
2018-01-21T02:13:43.699Z,86.07
2018-01-21T02:14:43.711Z,86.26
2018-01-21T02:15:43.710Z,86.26
2018-01-21T02:16:43.645Z,85.97
2018-01-21T02:17:43.630Z,86.26
2018-01-21T02:18:43.643Z,86.07
2018-01-21T02:19:43.664Z,86.45
2018-01-21T02:20:43.682Z,86.55
2018-01-21T02:21:43.652Z,85.88
2018-01-21T02:22:43.612Z,85.69
2018-01-21T02:23:43.616Z,85.60
2018-01-21T02:24:43.592Z,85.69
2018-01-21T02:25:43.598Z,85.60
2018-01-21T02:26:43.592Z,85.88
2018-01-21T02:27:43.577Z,85.50
2018-01-21T02:28:43.659Z,85.78
2018-01-21T02:29:43.594Z,86.07
2018-01-21T02:30:43.538Z,86.26
2018-01-21T02:31:43.645Z,85.69
2018-01-21T02:32:43.564Z,85.22
2018-01-21T02:33:43.512Z,85.60
2018-01-21T02:34:43.532Z,85.41
2018-01-21T02:35:43.581Z,85.31
2018-01-21T02:36:43.520Z,85.50
2018-01-21T02:37:43.537Z,86.07
2018-01-21T02:38:43.470Z,85.22
2018-01-21T02:39:43.532Z,85.50
2018-01-21T02:40:43.518Z,86.45
2018-01-21T02:41:43.479Z,85.60
2018-01-21T02:42:43.479Z,86.16
2018-01-21T02:43:43.634Z,86.26
2018-01-21T02:44:43.441Z,86.07
2018-01-21T02:45:43.488Z,85.88
2018-01-21T02:46:43.423Z,85.60
2018-01-21T02:47:52.412Z,85.69
2018-01-21T02:49:37.055Z,85.50
2018-01-21T02:50:36.893Z,85.60
2018-01-21T02:51:36.997Z,85.60
2018-01-21T02:52:36.880Z,85.31
2018-01-21T02:53:36.873Z,85.50
2018-01-21T02:54:36.827Z,85.31
2018-01-21T02:55:36.807Z,85.22
2018-01-21T02:56:36.818Z,85.31
2018-01-21T02:57:36.782Z,85.69
2018-01-21T02:58:36.808Z,85.50
2018-01-21T02:59:36.800Z,85.60
2018-01-21T03:00:46.138Z,85.22
2018-01-21T03:02:39.636Z,85.60
2018-01-21T03:03:38.885Z,85.31
2018-01-21T03:05:23.867Z,85.60
2018-01-21T03:06:23.626Z,85.60
2018-01-21T03:07:32.542Z,85.22
2018-01-21T03:09:26.450Z,85.22
2018-01-21T03:10:26.319Z,85.41
2018-01-21T03:12:10.662Z,85.41
2018-01-21T21:41:21.728Z,74.09
2018-01-21T21:42:25.392Z,75.13
2018-01-21T21:43:21.575Z,74.75
2018-01-21T21:44:20.862Z,74.28
2018-01-21T21:45:21.213Z,74.28
2018-01-21T21:46:21.482Z,74.09
2018-01-21T21:47:22.110Z,74.09
2018-01-21T21:48:21.083Z,73.71
2018-01-21T21:49:20.771Z,73.33
2018-01-21T21:50:21.585Z,73.61
2018-01-21T21:51:23.465Z,73.05
2018-01-21T21:52:22.368Z,72.77
2018-01-21T21:53:20.964Z,72.67
2018-01-21T21:55:43.659Z,72.38
2018-01-21T21:56:42.819Z,72.71
2018-01-21T21:57:43.726Z,73.05
2018-01-21T22:00:38.802Z,72.42
2018-01-21T22:01:39.072Z,73.14
2018-01-21T22:02:38.436Z,73.52
2018-01-21T22:03:39.089Z,73.14
2018-01-21T22:04:37.916Z,73.18
2018-01-21T22:05:37.752Z,73.08
2018-01-21T22:06:38.358Z,72.99
2018-01-21T22:07:38.588Z,72.71
2018-01-21T22:08:37.657Z,72.00
2018-01-21T22:09:37.657Z,72.86
2018-01-21T22:10:37.659Z,72.48
2018-01-21T22:11:37.881Z,72.67
2018-01-21T22:12:38.438Z,72.86
2018-01-21T22:13:37.520Z,72.96
2018-01-21T22:14:38.969Z,72.42
2018-01-21T22:15:37.618Z,72.04
2018-01-21T22:16:38.460Z,72.33
2018-01-21T22:17:37.571Z,71.72
2018-01-21T22:18:37.592Z,72.23
2018-01-21T22:19:37.693Z,72.04
2018-01-21T22:20:37.689Z,72.14
2018-01-21T22:21:37.437Z,72.42
2018-01-21T22:22:37.611Z,72.80
2018-01-21T22:23:37.820Z,72.23
2018-01-21T22:24:37.471Z,71.76
2018-01-21T22:25:37.389Z,71.38
2018-01-21T22:26:37.501Z,71.85
2018-01-21T22:27:37.604Z,71.00
2018-01-21T22:28:37.321Z,71.28
2018-01-21T22:29:37.399Z,71.95
2018-01-21T22:30:38.452Z,72.61
2018-01-21T22:31:38.506Z,72.57
2018-01-21T22:32:38.200Z,72.61
2018-01-21T22:33:37.469Z,72.57
2018-01-21T22:34:37.704Z,73.33
2018-01-21T22:35:37.617Z,73.33
2018-01-21T22:36:37.909Z,73.90
2018-01-21T22:37:37.511Z,73.90
2018-01-21T22:38:37.740Z,73.61
2018-01-21T22:39:39.880Z,73.71
2018-01-21T22:40:40.098Z,73.43
2018-01-21T22:41:38.217Z,73.18
2018-01-21T22:42:38.221Z,72.61
2018-01-21T22:43:37.488Z,72.14
2018-01-21T22:44:37.391Z,72.00
2018-01-21T22:45:37.315Z,72.86
2018-01-21T22:46:38.647Z,73.33
2018-01-21T22:47:37.615Z,73.90
2018-01-21T22:48:37.598Z,73.56
2018-01-21T22:49:39.086Z,72.86
2018-01-21T22:50:37.703Z,73.43
2018-01-21T22:51:37.363Z,73.61
2018-01-21T22:52:37.216Z,73.33
2018-01-21T22:53:37.159Z,73.52
2018-01-21T22:54:37.532Z,73.80
2018-01-21T22:55:39.356Z,74.75
2018-01-21T22:56:38.748Z,74.75
2018-01-21T22:57:38.303Z,74.95
2018-01-21T22:58:38.740Z,75.51
2018-01-21T22:59:38.857Z,75.79
2018-01-21T23:00:38.120Z,75.79
2018-01-21T23:01:37.179Z,75.79
2018-01-21T23:03:43.320Z,75.79
2018-01-21T23:04:38.213Z,75.70
2018-01-21T23:05:37.090Z,75.51
2018-01-21T23:06:37.379Z,75.04
2018-01-21T23:07:37.923Z,74.47
2018-01-21T23:08:37.306Z,74.41
2018-01-21T23:09:37.258Z,72.96
2018-01-21T23:10:38.819Z,72.48
2018-01-21T23:11:38.368Z,72.67
2018-01-21T23:12:37.012Z,73.43
2018-01-21T23:13:36.972Z,73.24
2018-01-21T23:14:37.135Z,73.46
2018-01-21T23:15:37.228Z,73.27
2018-01-21T23:16:36.966Z,73.37
2018-01-21T23:17:37.182Z,72.61
2018-01-21T23:18:37.236Z,73.08
2018-01-21T23:19:37.171Z,73.18
2018-01-21T23:20:36.989Z,73.37
2018-01-21T23:21:37.091Z,73.94
2018-01-21T23:22:37.044Z,74.32
2018-01-21T23:23:36.923Z,74.13
2018-01-21T23:24:36.902Z,73.99
2018-01-21T23:25:36.973Z,74.79
2018-01-21T23:26:45.950Z,74.95
2018-01-21T23:28:30.628Z,74.95
2018-01-21T23:29:30.488Z,74.95
2018-01-21T23:30:30.348Z,75.13
2018-01-21T23:31:30.239Z,75.79
2018-01-21T23:32:30.277Z,76.74
2018-01-21T23:33:30.534Z,76.55
2018-01-21T23:34:30.481Z,75.70
2018-01-21T23:35:30.270Z,76.65
2018-01-21T23:36:30.375Z,76.74
2018-01-21T23:37:30.327Z,76.84
2018-01-21T23:38:30.201Z,76.65
2018-01-21T23:39:30.156Z,76.93
2018-01-21T23:40:30.357Z,77.88
2018-01-21T23:41:30.324Z,78.45
2018-01-21T23:42:30.365Z,78.64
2018-01-21T23:43:30.446Z,79.87
2018-01-21T23:44:30.188Z,80.34
2018-01-21T23:45:30.163Z,80.21
2018-01-21T23:46:30.157Z,81.38
2018-01-21T23:47:30.126Z,80.82
2018-01-21T23:48:30.115Z,80.82
2018-01-21T23:49:30.108Z,80.34
2018-01-21T23:50:30.098Z,80.34
2018-01-21T23:51:30.076Z,80.34
2018-01-21T23:52:30.086Z,80.44
2018-01-21T23:53:30.046Z,80.34
2018-01-21T23:54:30.065Z,80.72
2018-01-21T23:55:30.077Z,80.72
2018-01-21T23:56:30.070Z,81.25
2018-01-21T23:57:30.049Z,81.92
2018-01-21T23:58:30.035Z,82.39
2018-01-21T23:59:30.038Z,83.24
